Αρχική σελίδα
METAR-TAF:

METAR-TAF

Αεροδρόμια :

Κέιπ Τάουν, Νότια Αφρική

γεωγραφικό πλάτος: 33-59S, γεωγραφικό μήκος: 018-36E, υψόμετρο: 42 μ

Παρών καιρός

Η αναφορά έγινε 1 ώρα και 6 λεπτά πριν, στις 08:00 UTC
Άνεμος 21 kt από Ν
Θερμοκρασία 20°C
Υγρασία 78%
Πίεση 1021 hPa
Ορατότητα 10 χλμ και άνω
Λίγα νέφη σε ύψος 2000 πόδια

METAR: FACT 250800Z 17021KT 9999 FEW020 20/16 Q1021 NOSIG

Χρόνος: 11:06 (09:06 UTC)

Πρόγνωση Καιρού

Η αναφορά έγινε 5 ώρες και 6 λεπτά πριν, στις 04:00 UTC
Η πρόγνωση ισχύει από τις 25 στις 06 UTC έως τις 26 στις 12 UTC
Άνεμος 10 kt από Ν
Ορατότητα 10 χλμ και άνω
Δεν υπάρχουν νέφη με βάση κάτω από τα 1500 μ. και δεν υπάρχουν νέφη σωρειτομελανίτες.
Καθιστάμενος
από 25 στις 08 UTC έως τις 25 στις 10 UTC
Άνεμος 20 kt από Ν

TAF: FACT 250400Z 2506/2612 18010KT CAVOK TX22/2512Z TN15/2605Z BECMG 2508/2510 17020KT

Μετεωρολογικές αναφορές και προγνώσεις για περισσότερα από 4000 αεροδρόμια (δελτία METAR και TAF).

Οι διαθέσιμοι σταθμοί απεικονίζονται στο χάρτη με κίτρινες και κόκκινες κουκκίδες.

Μετακινήστε το ποντίκι πάνω από τις κουκκίδες για να δείτε το όνομα του σταθμού.

Στη συνέχεια, κάντε κλικ για να δείτε τις μετεωρολογικές αναφορές και τις προγνώσεις καιρού.

Για να αλλάξετε το χάρτη: κάντε κλικ στα πράσινα κουμπιά με τον μαύρο σταυρό για να ζουμάρετε, στο πράσινο κουμπί με την παύλα για να αφαιρέσετε το ζουμ ή στα πράσινα βέλη για να αντιπαραβάλλετε χάρτες.


METAR-TAF: